createdAt,value
2023-02-06T00:00:55.496Z,104040.84
2023-02-06T00:03:23.085Z,104037.19
2023-02-06T00:05:57.998Z,104041.59
2023-02-06T00:08:27.743Z,104045.47
2023-02-06T00:10:55.914Z,104052.91
2023-02-06T00:13:23.818Z,104051.81
2023-02-06T00:15:51.504Z,104060.94
2023-02-06T00:18:19.095Z,104065.66
2023-02-06T00:20:46.783Z,104065.94
2023-02-06T00:23:14.401Z,104064.44
2023-02-06T00:25:43.430Z,104058.63
2023-02-06T00:28:11.118Z,104054.47
2023-02-06T00:30:38.824Z,104046.59
2023-02-06T00:33:06.518Z,104041.38
2023-02-06T00:35:34.384Z,104042.88
2023-02-06T00:38:02.476Z,104040.47
2023-02-06T00:40:30.342Z,104046.69
2023-02-06T00:42:59.389Z,104047.75
2023-02-06T00:45:27.030Z,104053.44
2023-02-06T00:47:54.950Z,104052.34
2023-02-06T00:50:22.560Z,104049.59
2023-02-06T00:52:50.143Z,104054.06
2023-02-06T00:55:17.884Z,104051.63
2023-02-06T00:57:45.485Z,104060.66
2023-02-06T01:00:15.925Z,104053.09
2023-02-06T01:02:43.647Z,104049.91
2023-02-06T01:05:11.722Z,104041.53
2023-02-06T01:07:40.177Z,104048.88
2023-02-06T01:10:09.121Z,104036.81
2023-02-06T01:12:37.783Z,104039.53
2023-02-06T01:15:06.492Z,104049.19
2023-02-06T01:17:35.537Z,104041.50
2023-02-06T01:20:03.817Z,104050.47
2023-02-06T01:22:33.835Z,104043.66
2023-02-06T01:25:02.053Z,104046.53
2023-02-06T01:27:29.759Z,104063.31
2023-02-06T01:29:57.393Z,104052.03
2023-02-06T01:32:25.002Z,104047.81
2023-02-06T01:34:53.966Z,104053.94
2023-02-06T01:37:21.658Z,104048.06
2023-02-06T01:39:49.322Z,104047.16
2023-02-06T01:42:16.901Z,104044.44
2023-02-06T01:44:44.531Z,104040.97
2023-02-06T01:47:12.496Z,104045.38
2023-02-06T01:49:45.390Z,104039.25
2023-02-06T01:52:19.265Z,104041.09
2023-02-06T01:54:50.473Z,104041.13
2023-02-06T01:57:19.802Z,104032.47
2023-02-06T01:59:52.011Z,104039.47
2023-02-06T02:02:20.098Z,104045.66
2023-02-06T02:04:47.919Z,104038.75
2023-02-06T02:07:21.730Z,104030.97
2023-02-06T02:09:49.903Z,104024.94
2023-02-06T02:12:17.766Z,104036.38
2023-02-06T02:14:47.114Z,104040.81
2023-02-06T02:17:28.526Z,104042.63
2023-02-06T02:20:33.838Z,104052.28
2023-02-06T02:23:23.663Z,104052.22
2023-02-06T02:26:24.613Z,104052.88
2023-02-06T02:29:37.196Z,104060.47
2023-02-06T02:32:50.624Z,104056.66
2023-02-06T02:35:28.171Z,104058.97
2023-02-06T02:38:04.432Z,104056.09
2023-02-06T02:40:40.613Z,104066.22
2023-02-06T02:43:17.530Z,104067.78
2023-02-06T02:45:50.409Z,104075.47
2023-02-06T02:48:22.754Z,104076.16
2023-02-06T02:50:52.270Z,104085.75
2023-02-06T02:53:20.758Z,104084.94
2023-02-06T02:55:48.678Z,104083.31
2023-02-06T02:58:19.723Z,104079.13
2023-02-06T03:00:52.215Z,104074.06
2023-02-06T03:03:23.101Z,104073.28
2023-02-06T03:06:07.563Z,104067.16
2023-02-06T03:08:44.190Z,104062.00
2023-02-06T03:11:16.057Z,104058.50
2023-02-06T03:13:52.230Z,104056.78
2023-02-06T03:16:24.878Z,104063.84
2023-02-06T03:18:59.634Z,104050.81
2023-02-06T03:21:30.267Z,104055.31
2023-02-06T03:24:02.183Z,104051.06
2023-02-06T03:26:32.614Z,104052.88
2023-02-06T03:29:03.343Z,104065.16
2023-02-06T03:31:35.347Z,104053.88
2023-02-06T03:34:10.666Z,104066.19
2023-02-06T03:36:40.038Z,104058.41
2023-02-06T03:39:08.259Z,104050.78
2023-02-06T03:41:39.272Z,104057.00
2023-02-06T03:44:11.502Z,104057.97
2023-02-06T03:46:43.044Z,104059.78
2023-02-06T03:49:15.857Z,104060.75
2023-02-06T03:51:50.098Z,104055.56
2023-02-06T03:54:22.631Z,104052.88
2023-02-06T03:56:54.275Z,104049.38
2023-02-06T03:59:22.468Z,104045.88
2023-02-06T04:01:54.987Z,104039.78
2023-02-06T04:04:29.074Z,104031.84
2023-02-06T04:07:01.079Z,104035.22
2023-02-06T04:09:28.650Z,104034.28
2023-02-06T04:11:56.324Z,104023.66
2023-02-06T04:14:23.985Z,104022.59
2023-02-06T04:16:51.559Z,104024.16
2023-02-06T04:19:19.189Z,104019.66
2023-02-06T04:21:46.821Z,104025.66
2023-02-06T04:24:15.752Z,104026.44
2023-02-06T04:26:43.353Z,104026.22
2023-02-06T04:29:12.743Z,104021.63
2023-02-06T04:31:40.452Z,104020.50
2023-02-06T04:34:08.250Z,104022.88
2023-02-06T04:36:36.254Z,104025.00
2023-02-06T04:39:03.991Z,104029.75
2023-02-06T04:41:32.907Z,104027.59
2023-02-06T04:44:00.580Z,104026.50
2023-02-06T04:46:28.397Z,104024.44
2023-02-06T04:48:56.358Z,104011.97
2023-02-06T04:51:24.102Z,104014.19
2023-02-06T04:53:51.687Z,104019.91
2023-02-06T04:56:19.272Z,104014.50
2023-02-06T04:58:48.211Z,104015.97
2023-02-06T05:01:16.777Z,104014.78
2023-02-06T05:03:44.584Z,104006.63
2023-02-06T05:06:12.559Z,104009.84
2023-02-06T05:08:40.531Z,104015.03
2023-02-06T05:11:08.426Z,104010.59
2023-02-06T05:13:36.214Z,104021.09
2023-02-06T05:16:07.708Z,104028.94
2023-02-06T05:18:36.163Z,104030.72
2023-02-06T05:21:04.319Z,104023.69
2023-02-06T05:23:32.363Z,104039.28
2023-02-06T05:26:00.553Z,104035.66
2023-02-06T05:28:29.675Z,104041.69
2023-02-06T05:30:57.687Z,104039.88
2023-02-06T05:33:26.793Z,104038.91
2023-02-06T05:35:54.587Z,104047.47
2023-02-06T05:38:22.204Z,104045.53
2023-02-06T05:40:52.126Z,104044.50
2023-02-06T05:43:19.769Z,104047.06
2023-02-06T05:45:47.388Z,104042.63
2023-02-06T05:48:15.222Z,104044.28
2023-02-06T05:50:44.242Z,104045.06
2023-02-06T05:53:11.850Z,104046.06
2023-02-06T05:55:39.411Z,104054.84
2023-02-06T05:58:07.344Z,104058.34
2023-02-06T06:00:35.193Z,104048.88
2023-02-06T06:03:02.833Z,104050.63
2023-02-06T06:05:30.505Z,104048.13
2023-02-06T06:07:59.509Z,104037.72
2023-02-06T06:10:27.196Z,104042.00
2023-02-06T06:12:55.000Z,104036.66
2023-02-06T06:15:22.577Z,104047.19
2023-02-06T06:17:50.198Z,104052.41
2023-02-06T06:20:18.116Z,104057.66
2023-02-06T06:22:45.928Z,104065.53
2023-02-06T06:25:14.908Z,104061.25
2023-02-06T06:27:42.589Z,104065.00
2023-02-06T06:30:11.743Z,104060.63
2023-02-06T06:32:39.510Z,104069.41
2023-02-06T06:35:07.660Z,104071.13
2023-02-06T06:37:35.385Z,104070.25
2023-02-06T06:40:03.041Z,104070.22
2023-02-06T06:42:32.012Z,104075.41
2023-02-06T06:44:59.782Z,104074.56
2023-02-06T06:47:27.406Z,104076.31
2023-02-06T06:49:54.959Z,104086.00
2023-02-06T06:52:25.383Z,104072.84
2023-02-06T06:54:53.825Z,104071.06
2023-02-06T06:57:21.779Z,104068.53
2023-02-06T06:59:51.102Z,104067.59
2023-02-06T07:02:18.847Z,104069.25
2023-02-06T07:04:46.573Z,104074.50
2023-02-06T07:07:14.563Z,104075.38
2023-02-06T07:09:42.161Z,104079.66
2023-02-06T07:12:09.796Z,104070.91
2023-02-06T07:14:37.394Z,104077.06
2023-02-06T07:17:06.361Z,104063.25
2023-02-06T07:19:34.273Z,104066.03
2023-02-06T07:22:01.890Z,104066.03
2023-02-06T07:24:29.511Z,104066.03
2023-02-06T07:26:58.239Z,104055.34
2023-02-06T07:29:26.286Z,104070.03
2023-02-06T07:31:53.896Z,104068.94
2023-02-06T07:34:22.965Z,104067.84
2023-02-06T07:36:50.587Z,104068.50
2023-02-06T07:39:18.270Z,104069.94
2023-02-06T07:41:48.151Z,104068.81
2023-02-06T07:44:15.948Z,104081.72
2023-02-06T07:46:43.790Z,104092.19
2023-02-06T07:49:13.102Z,104090.25
2023-02-06T07:51:42.293Z,104104.28
2023-02-06T07:54:10.113Z,104105.19
2023-02-06T07:56:38.208Z,104100.81
2023-02-06T07:59:06.446Z,104109.69
2023-02-06T08:01:34.070Z,104113.34
2023-02-06T08:04:01.829Z,104116.69
2023-02-06T08:06:29.450Z,104111.94
2023-02-06T08:08:58.634Z,104120.44
2023-02-06T08:11:29.954Z,104119.41
2023-02-06T08:13:58.390Z,104121.19
2023-02-06T08:16:26.025Z,104135.13
2023-02-06T08:18:53.673Z,104135.13
2023-02-06T08:21:23.512Z,104137.75
2023-02-06T08:23:55.203Z,104128.94
2023-02-06T08:26:24.985Z,104128.84
2023-02-06T08:28:53.695Z,104125.94
2023-02-06T08:31:23.792Z,104118.03
2023-02-06T08:33:52.048Z,104127.34
2023-02-06T08:36:21.670Z,104118.41
2023-02-06T08:38:49.808Z,104119.41
2023-02-06T08:41:19.862Z,104118.63
2023-02-06T08:43:50.511Z,104122.16
2023-02-06T08:46:19.533Z,104120.28
2023-02-06T08:48:47.895Z,104122.50
2023-02-06T08:51:16.247Z,104121.91
2023-02-06T08:53:43.875Z,104125.69
2023-02-06T08:56:13.205Z,104109.53
2023-02-06T08:58:41.169Z,104099.44
2023-02-06T09:01:13.642Z,104102.09
2023-02-06T09:03:42.693Z,104102.75
2023-02-06T09:06:11.283Z,104098.09
2023-02-06T09:08:39.782Z,104101.03
2023-02-06T09:11:07.765Z,104099.84
2023-02-06T09:13:35.803Z,104095.88
2023-02-06T09:16:03.718Z,104093.13
2023-02-06T09:18:32.970Z,104091.00
2023-02-06T09:21:05.708Z,104085.84
2023-02-06T09:23:33.319Z,104083.81
2023-02-06T09:26:00.928Z,104079.25
2023-02-06T09:28:28.504Z,104072.66
2023-02-06T09:30:56.233Z,104081.19
2023-02-06T09:33:25.466Z,104088.44
2023-02-06T09:36:04.772Z,104084.94
2023-02-06T09:38:32.636Z,104093.97
2023-02-06T09:41:03.119Z,104095.72
2023-02-06T09:43:33.248Z,104094.22
2023-02-06T09:46:04.117Z,104096.28
2023-02-06T09:48:34.860Z,104107.47
2023-02-06T09:51:13.427Z,104108.44
2023-02-06T09:53:53.408Z,104122.16
2023-02-06T09:56:30.972Z,104121.97
2023-02-06T09:59:06.457Z,104121.47
2023-02-06T10:01:40.075Z,104123.63
2023-02-06T10:04:28.692Z,104113.13
2023-02-06T10:07:06.981Z,104122.91
2023-02-06T10:09:41.270Z,104126.84
2023-02-06T10:12:15.678Z,104128.88
2023-02-06T10:14:46.185Z,104130.16
2023-02-06T10:17:18.823Z,104135.84
2023-02-06T10:19:50.614Z,104129.59
2023-02-06T10:22:26.881Z,104134.09
2023-02-06T10:25:12.384Z,104129.69
2023-02-06T10:27:44.573Z,104131.81
2023-02-06T10:30:17.375Z,104135.50
2023-02-06T10:32:52.558Z,104133.25
2023-02-06T10:35:32.715Z,104125.84
2023-02-06T10:38:21.810Z,104126.25
2023-02-06T10:40:55.492Z,104135.63
2023-02-06T10:43:34.815Z,104130.94
2023-02-06T10:46:19.811Z,104134.22
2023-02-06T10:48:58.438Z,104147.41
2023-02-06T10:51:31.487Z,104148.88
2023-02-06T10:54:03.984Z,104152.63
2023-02-06T10:56:36.658Z,104153.47
2023-02-06T10:59:11.901Z,104147.88
2023-02-06T11:01:42.045Z,104148.84
2023-02-06T11:04:16.069Z,104149.06
2023-02-06T11:06:46.841Z,104143.72
2023-02-06T11:09:16.795Z,104150.69
2023-02-06T11:11:48.483Z,104146.50
2023-02-06T11:14:24.981Z,104143.88
2023-02-06T11:16:53.842Z,104148.06
2023-02-06T11:19:30.176Z,104157.91
2023-02-06T11:22:10.500Z,104156.31
2023-02-06T11:24:40.303Z,104151.22
2023-02-06T11:27:18.009Z,104140.97
2023-02-06T11:29:50.408Z,104138.84
2023-02-06T11:32:30.546Z,104139.38
2023-02-06T11:35:00.829Z,104133.66
2023-02-06T11:37:35.347Z,104130.41
2023-02-06T11:40:23.349Z,104125.06
2023-02-06T11:42:53.643Z,104124.47
2023-02-06T11:45:26.782Z,104104.47
2023-02-06T11:47:54.829Z,104095.00
2023-02-06T11:50:28.302Z,104113.13
2023-02-06T11:53:00.443Z,104103.63
2023-02-06T11:55:34.233Z,104102.97
2023-02-06T11:58:06.168Z,104105.59
2023-02-06T12:00:35.912Z,104096.94
2023-02-06T12:03:04.464Z,104090.84
2023-02-06T12:05:35.950Z,104089.72
2023-02-06T12:08:07.312Z,104096.84
2023-02-06T12:10:40.502Z,104091.53
2023-02-06T12:13:17.887Z,104086.25
2023-02-06T12:15:48.501Z,104078.66
2023-02-06T12:18:21.918Z,104078.91
2023-02-06T12:20:54.138Z,104086.25
2023-02-06T12:23:28.462Z,104084.22
2023-02-06T12:26:00.806Z,104075.66
2023-02-06T12:28:34.449Z,104094.44
2023-02-06T12:31:05.280Z,104090.59
2023-02-06T12:33:41.191Z,104078.09
2023-02-06T12:36:15.922Z,104085.72
2023-02-06T12:38:48.187Z,104079.63
2023-02-06T12:41:47.329Z,104083.81
2023-02-06T12:44:25.402Z,104075.88
2023-02-06T12:46:57.832Z,104065.47
2023-02-06T12:49:29.679Z,104067.38
2023-02-06T12:52:04.757Z,104071.34
2023-02-06T12:54:37.122Z,104070.03
2023-02-06T12:57:14.896Z,104084.06
2023-02-06T13:00:05.247Z,104081.75
2023-02-06T13:03:13.659Z,104081.69
2023-02-06T13:05:44.776Z,104081.75
2023-02-06T13:08:16.266Z,104079.13
2023-02-06T13:10:44.610Z,104080.63
2023-02-06T13:13:28.886Z,104088.19
2023-02-06T13:16:00.330Z,104102.50
2023-02-06T13:19:04.256Z,104100.09
2023-02-06T13:21:33.853Z,104096.38
2023-02-06T13:24:17.520Z,104098.06
2023-02-06T13:27:14.294Z,104091.41
2023-02-06T13:29:44.631Z,104098.69
2023-02-06T13:32:32.436Z,104099.34
2023-02-06T13:35:14.794Z,104095.41
2023-02-06T13:37:44.160Z,104094.41
2023-02-06T13:40:30.527Z,104094.94
2023-02-06T13:43:02.344Z,104090.53
2023-02-06T13:45:34.565Z,104091.13
2023-02-06T13:48:51.302Z,104086.22
2023-02-06T13:51:43.736Z,104086.22
2023-02-06T13:54:41.548Z,104082.31
2023-02-06T13:57:29.277Z,104082.75
2023-02-06T14:00:02.168Z,104085.91
2023-02-06T14:02:38.975Z,104087.19
2023-02-06T14:05:12.533Z,104083.47
2023-02-06T14:07:58.360Z,104077.28
2023-02-06T14:10:49.034Z,104079.84
2023-02-06T14:13:32.931Z,104084.84
2023-02-06T14:16:19.157Z,104078.69
2023-02-06T14:18:56.566Z,104081.84
2023-02-06T14:21:37.372Z,104078.53
2023-02-06T14:24:22.978Z,104075.97
2023-02-06T14:27:00.902Z,104081.44
2023-02-06T14:29:40.830Z,104075.97
2023-02-06T14:32:28.950Z,104073.13
2023-02-06T14:35:16.621Z,104077.25
2023-02-06T14:38:13.415Z,104076.34
2023-02-06T14:40:44.011Z,104076.28
2023-02-06T14:43:17.878Z,104079.97
2023-02-06T14:46:05.423Z,104084.53
2023-02-06T14:48:39.713Z,104080.41
2023-02-06T14:51:10.052Z,104090.09
2023-02-06T14:53:39.009Z,104083.94
2023-02-06T14:56:10.124Z,104086.66
2023-02-06T14:58:37.740Z,104079.94
2023-02-06T15:01:15.272Z,104089.06
2023-02-06T15:03:43.435Z,104086.13
2023-02-06T15:06:15.273Z,104085.25
2023-02-06T15:08:49.419Z,104092.44
2023-02-06T15:11:20.911Z,104094.22
2023-02-06T15:13:51.672Z,104101.38
2023-02-06T15:16:19.459Z,104090.97
2023-02-06T15:18:47.226Z,104089.41
2023-02-06T15:21:18.547Z,104103.50
2023-02-06T15:24:00.973Z,104098.50
2023-02-06T15:26:35.488Z,104082.03
2023-02-06T15:29:06.212Z,104077.94
2023-02-06T15:31:33.952Z,104090.31
2023-02-06T15:34:02.312Z,104084.28
2023-02-06T15:36:35.050Z,104086.03
2023-02-06T15:39:06.280Z,104097.75
2023-02-06T15:41:35.512Z,104102.50
2023-02-06T15:44:07.618Z,104086.06
2023-02-06T15:46:35.589Z,104075.75
2023-02-06T15:49:03.486Z,104067.97
2023-02-06T15:51:40.910Z,104073.34
2023-02-06T15:54:11.039Z,104085.34
2023-02-06T15:56:42.154Z,104073.00
2023-02-06T15:59:17.775Z,104086.19
2023-02-06T16:01:46.096Z,104098.03
2023-02-06T16:04:18.010Z,104112.91
2023-02-06T16:06:47.973Z,104113.75
2023-02-06T16:09:21.873Z,104111.31
2023-02-06T16:11:54.033Z,104109.56
2023-02-06T16:14:25.355Z,104110.34
2023-02-06T16:17:04.318Z,104117.50
2023-02-06T16:19:47.603Z,104115.84
2023-02-06T16:22:22.667Z,104119.47
2023-02-06T16:24:51.220Z,104114.25
2023-02-06T16:27:22.101Z,104104.66
2023-02-06T16:29:52.742Z,104118.59
2023-02-06T16:32:24.300Z,104119.63
2023-02-06T16:34:52.731Z,104117.84
2023-02-06T16:37:23.732Z,104124.34
2023-02-06T16:39:51.887Z,104135.84
2023-02-06T16:42:21.816Z,104128.94
2023-02-06T16:44:51.926Z,104124.69
2023-02-06T16:47:21.909Z,104130.84
2023-02-06T16:49:49.843Z,104126.41
2023-02-06T16:52:20.852Z,104127.31
2023-02-06T16:54:50.759Z,104129.94
2023-02-06T16:57:26.977Z,104119.47
2023-02-06T16:59:54.981Z,104116.91
2023-02-06T17:02:22.853Z,104122.25
2023-02-06T17:04:51.046Z,104122.28
2023-02-06T17:07:20.533Z,104116.34
2023-02-06T17:09:50.294Z,104119.88
2023-02-06T17:12:20.422Z,104125.25
2023-02-06T17:14:48.843Z,104127.88
2023-02-06T17:17:18.821Z,104139.28
2023-02-06T17:19:46.596Z,104144.53
2023-02-06T17:22:14.847Z,104140.19
2023-02-06T17:24:43.740Z,104146.31
2023-02-06T17:27:15.917Z,104140.25
2023-02-06T17:29:45.592Z,104154.31
2023-02-06T17:32:16.064Z,104152.88
2023-02-06T17:34:43.715Z,104160.81
2023-02-06T17:37:20.636Z,104161.84
2023-02-06T17:39:50.006Z,104156.69
2023-02-06T17:42:19.533Z,104161.09
2023-02-06T17:44:47.282Z,104170.75
2023-02-06T17:47:14.915Z,104161.13
2023-02-06T17:49:42.607Z,104167.34
2023-02-06T17:52:10.232Z,104163.75
2023-02-06T17:54:38.096Z,104170.81
2023-02-06T17:57:05.760Z,104162.94
2023-02-06T17:59:34.680Z,104158.47
2023-02-06T18:02:02.840Z,104165.56
2023-02-06T18:04:30.462Z,104163.84
2023-02-06T18:06:58.223Z,104167.38
2023-02-06T18:09:25.832Z,104164.75
2023-02-06T18:11:53.612Z,104172.72
2023-02-06T18:14:21.575Z,104172.72
2023-02-06T18:16:50.661Z,104169.19
2023-02-06T18:19:23.821Z,104172.81
2023-02-06T18:21:51.672Z,104171.06
2023-02-06T18:24:19.293Z,104172.00
2023-02-06T18:26:47.451Z,104179.06
2023-02-06T18:29:15.145Z,104180.91
2023-02-06T18:31:42.897Z,104176.44
2023-02-06T18:34:12.520Z,104171.19
2023-02-06T18:36:40.283Z,104187.81
2023-02-06T18:39:07.918Z,104185.25
2023-02-06T18:41:52.914Z,104183.56
2023-02-06T18:44:20.590Z,104180.94
2023-02-06T18:46:48.330Z,104184.44
2023-02-06T18:49:17.576Z,104180.25
2023-02-06T18:51:45.312Z,104203.03
2023-02-06T18:54:12.946Z,104209.13
2023-02-06T18:56:40.589Z,104201.28
2023-02-06T18:59:08.257Z,104193.50
2023-02-06T19:01:36.066Z,104190.19
2023-02-06T19:04:03.958Z,104186.69
2023-02-06T19:06:36.498Z,104189.47
2023-02-06T19:09:06.969Z,104186.00
2023-02-06T19:11:35.273Z,104179.13
2023-02-06T19:14:02.959Z,104175.59
2023-02-06T19:16:32.412Z,104179.19
2023-02-06T19:19:00.217Z,104178.25
2023-02-06T19:21:28.201Z,104180.94
2023-02-06T19:23:59.277Z,104186.22
2023-02-06T19:26:28.389Z,104182.75
2023-02-06T19:28:56.997Z,104179.28
2023-02-06T19:31:25.292Z,104189.69
2023-02-06T19:33:54.553Z,104178.25
2023-02-06T19:36:23.963Z,104175.53
2023-02-06T19:38:55.920Z,104185.13
2023-02-06T19:41:27.856Z,104187.66
2023-02-06T19:43:57.200Z,104182.66
2023-02-06T19:46:26.925Z,104176.31
2023-02-06T19:48:56.380Z,104173.94
2023-02-06T19:51:26.305Z,104175.69
2023-02-06T19:53:55.887Z,104169.47
2023-02-06T19:56:26.511Z,104163.19
2023-02-06T19:58:55.898Z,104174.44
2023-02-06T20:01:24.056Z,104169.94
2023-02-06T20:03:53.059Z,104171.59
2023-02-06T20:06:20.770Z,104168.94
2023-02-06T20:08:48.804Z,104173.34
2023-02-06T20:11:19.727Z,104175.28
2023-02-06T20:13:51.980Z,104180.56
2023-02-06T20:16:21.430Z,104183.19
2023-02-06T20:18:49.419Z,104185.25
2023-02-06T20:21:26.770Z,104185.25
2023-02-06T20:23:55.345Z,104180.03
2023-02-06T20:26:25.361Z,104166.84
2023-02-06T20:28:54.612Z,104178.22
2023-02-06T20:31:22.677Z,104180.75
2023-02-06T20:33:51.421Z,104178.34
2023-02-06T20:36:23.684Z,104178.47
2023-02-06T20:38:52.769Z,104175.91
2023-02-06T20:41:21.701Z,104175.16
2023-02-06T20:43:49.488Z,104175.16
2023-02-06T20:46:19.910Z,104177.88
2023-02-06T20:48:53.190Z,104166.50
2023-02-06T20:51:20.943Z,104175.34
2023-02-06T20:53:48.654Z,104178.97
2023-02-06T20:56:16.879Z,104186.09
2023-02-06T20:58:45.405Z,104184.41
2023-02-06T21:01:14.668Z,104179.16
2023-02-06T21:03:44.466Z,104175.63
2023-02-06T21:06:12.297Z,104180.03
2023-02-06T21:08:39.945Z,104170.50
2023-02-06T21:11:07.684Z,104169.63
2023-02-06T21:13:35.928Z,104163.47
2023-02-06T21:16:03.813Z,104167.00
2023-02-06T21:18:32.727Z,104169.53
2023-02-06T21:21:09.411Z,104168.72
2023-02-06T21:23:37.520Z,104173.16
2023-02-06T21:26:06.546Z,104169.72
2023-02-06T21:28:35.749Z,104166.22
2023-02-06T21:31:05.957Z,104167.16
2023-02-06T21:33:34.665Z,104175.03
2023-02-06T21:36:06.727Z,104172.44
2023-02-06T21:38:35.341Z,104181.28
2023-02-06T21:41:06.283Z,104183.97
2023-02-06T21:43:34.815Z,104192.75
2023-02-06T21:46:03.584Z,104188.47
2023-02-06T21:48:31.747Z,104190.25
2023-02-06T21:50:59.644Z,104185.88
2023-02-06T21:53:28.693Z,104187.63
2023-02-06T21:55:58.984Z,104185.06
2023-02-06T21:58:26.778Z,104198.22
2023-02-06T22:00:55.416Z,104199.06
2023-02-06T22:03:23.168Z,104201.63
2023-02-06T22:05:50.806Z,104193.75
2023-02-06T22:08:18.684Z,104186.94
2023-02-06T22:10:47.660Z,104195.88
2023-02-06T22:13:15.406Z,104187.22
2023-02-06T22:15:49.133Z,104188.19
2023-02-06T22:18:16.806Z,104193.44
2023-02-06T22:20:44.507Z,104191.69
2023-02-06T22:23:12.224Z,104181.38
2023-02-06T22:25:46.736Z,104185.13
2023-02-06T22:28:15.781Z,104174.72
2023-02-06T22:30:43.487Z,104164.44
2023-02-06T22:33:11.145Z,104175.09
2023-02-06T22:35:40.014Z,104182.09
2023-02-06T22:38:08.101Z,104176.94
2023-02-06T22:40:35.832Z,104178.53
2023-02-06T22:43:03.615Z,104176.88
2023-02-06T22:45:35.675Z,104183.78
2023-02-06T22:48:03.560Z,104184.56
2023-02-06T22:50:31.242Z,104182.72
2023-02-06T22:53:12.749Z,104184.44
2023-02-06T22:55:58.512Z,104192.31
2023-02-06T22:58:26.135Z,104181.81
2023-02-06T23:01:02.439Z,104176.50
2023-02-06T23:03:30.182Z,104173.88
2023-02-06T23:06:01.828Z,104174.81
2023-02-06T23:08:30.267Z,104170.44
2023-02-06T23:10:58.281Z,104162.59
2023-02-06T23:13:26.420Z,104162.69
2023-02-06T23:15:58.141Z,104172.31
2023-02-06T23:18:26.882Z,104163.63
2023-02-06T23:20:55.291Z,104168.00
2023-02-06T23:23:23.074Z,104168.81
2023-02-06T23:25:52.280Z,104174.94
2023-02-06T23:28:20.500Z,104163.63
2023-02-06T23:30:48.593Z,104164.69
2023-02-06T23:33:19.233Z,104164.81
2023-02-06T23:35:46.955Z,104172.75
2023-02-06T23:38:14.570Z,104175.31
2023-02-06T23:40:42.221Z,104176.16
2023-02-06T23:43:10.946Z,104170.13
2023-02-06T23:45:39.271Z,104173.63
2023-02-06T23:48:07.243Z,104172.78
2023-02-06T23:50:36.298Z,104172.69
2023-02-06T23:53:03.997Z,104163.06
2023-02-06T23:55:31.660Z,104158.69
2023-02-06T23:57:59.427Z,104163.06
